createdAt,value
2018-05-13T00:02:01.112Z,13.10
2018-05-13T00:04:28.680Z,13.10
2018-05-13T00:06:56.267Z,13.10
2018-05-13T00:09:23.852Z,13.20
2018-05-13T00:11:52.311Z,13.30
2018-05-13T00:14:19.874Z,13.30
2018-05-13T00:16:47.428Z,13.30
2018-05-13T00:19:15.137Z,13.20
2018-05-13T00:21:42.746Z,12.90
2018-05-13T00:24:10.383Z,12.90
2018-05-13T00:26:37.939Z,12.90
2018-05-13T00:29:05.503Z,12.90
2018-05-13T00:31:33.060Z,12.90
2018-05-13T00:34:00.639Z,12.80
2018-05-13T00:36:28.324Z,12.80
2018-05-13T00:38:56.660Z,12.90
2018-05-13T00:41:24.290Z,12.90
2018-05-13T00:43:51.866Z,12.90
2018-05-13T00:46:19.443Z,12.90
2018-05-13T00:48:47.037Z,12.90
2018-05-13T00:51:15.463Z,12.90
2018-05-13T00:53:43.011Z,12.80
2018-05-13T00:56:10.849Z,12.80
2018-05-13T00:58:39.172Z,12.80
2018-05-13T01:01:06.777Z,12.80
2018-05-13T01:03:35.155Z,12.80
2018-05-13T01:06:02.736Z,12.70
2018-05-13T01:08:30.394Z,12.70
2018-05-13T01:10:57.957Z,12.70
2018-05-13T01:13:25.537Z,12.80
2018-05-13T01:15:53.104Z,12.80
2018-05-13T01:18:20.672Z,12.70
2018-05-13T01:20:48.236Z,12.70
2018-05-13T01:23:15.780Z,12.80
2018-05-13T01:25:43.387Z,12.70
2018-05-13T01:28:11.035Z,12.70
2018-05-13T01:30:38.614Z,12.60
2018-05-13T01:33:06.160Z,12.70
2018-05-13T01:35:33.763Z,12.70
2018-05-13T01:38:01.476Z,12.80
2018-05-13T01:40:29.046Z,12.80
2018-05-13T01:42:56.601Z,12.70
2018-05-13T01:45:24.176Z,12.60
2018-05-13T01:47:51.752Z,12.50
2018-05-13T01:50:19.341Z,12.50
2018-05-13T01:52:46.904Z,12.50
2018-05-13T01:55:14.502Z,12.50
2018-05-13T01:57:42.848Z,12.50
2018-05-13T02:00:10.465Z,12.50
2018-05-13T02:02:38.040Z,12.60
2018-05-13T02:05:05.618Z,12.60
2018-05-13T02:07:33.165Z,12.70
2018-05-13T02:10:00.943Z,12.60
2018-05-13T02:12:28.549Z,12.60
2018-05-13T02:14:56.889Z,12.70
2018-05-13T02:17:24.518Z,12.70
2018-05-13T02:19:52.097Z,12.70
2018-05-13T02:22:19.672Z,12.70
2018-05-13T02:24:47.204Z,12.80
2018-05-13T02:27:14.736Z,12.80
2018-05-13T02:29:42.299Z,12.70
2018-05-13T02:32:09.873Z,12.70
2018-05-13T02:34:37.594Z,12.80
2018-05-13T02:37:05.156Z,12.70
2018-05-13T02:39:33.500Z,12.60
2018-05-13T02:42:01.340Z,12.60
2018-05-13T02:44:28.892Z,12.60
2018-05-13T02:46:56.457Z,12.60
2018-05-13T02:49:24.105Z,12.50
2018-05-13T02:51:51.653Z,12.50
2018-05-13T02:54:19.227Z,12.50
2018-05-13T02:56:47.043Z,12.60
2018-05-13T02:59:14.648Z,12.60
2018-05-13T03:01:42.185Z,12.70
2018-05-13T03:04:10.549Z,12.60
2018-05-13T03:06:38.127Z,12.60
2018-05-13T03:09:06.443Z,12.60
2018-05-13T03:11:34.023Z,12.50
2018-05-13T03:14:01.858Z,12.50
2018-05-13T03:16:29.429Z,12.50
2018-05-13T03:18:57.107Z,12.50
2018-05-13T03:21:24.589Z,12.50
2018-05-13T03:23:52.149Z,12.40
2018-05-13T03:26:19.748Z,12.40
2018-05-13T03:28:48.350Z,12.40
2018-05-13T03:31:16.037Z,12.30
2018-05-13T03:33:43.631Z,12.40
2018-05-13T03:36:11.191Z,12.40
2018-05-13T03:38:38.797Z,12.40
2018-05-13T03:41:06.352Z,12.40
2018-05-13T03:43:34.016Z,12.50
2018-05-13T03:46:01.583Z,12.60
2018-05-13T03:48:29.139Z,12.60
2018-05-13T03:50:56.691Z,12.70
2018-05-13T03:53:24.263Z,12.80
2018-05-13T03:55:52.012Z,12.90
2018-05-13T03:58:19.585Z,13.00
2018-05-13T04:00:47.391Z,13.10
2018-05-13T04:03:14.950Z,13.10
2018-05-13T04:05:42.564Z,13.20
2018-05-13T04:11:33.584Z,13.20
2018-05-13T04:14:12.863Z,13.30
2018-05-13T04:16:40.473Z,13.50
2018-05-13T04:19:08.038Z,13.50
2018-05-13T04:21:35.805Z,13.50
2018-05-13T04:24:03.518Z,13.60
2018-05-13T04:26:31.063Z,13.60
2018-05-13T04:28:59.060Z,13.60
2018-05-13T04:31:27.379Z,13.50
2018-05-13T04:33:54.958Z,13.50
2018-05-13T04:36:22.526Z,13.50
2018-05-13T04:38:50.252Z,13.70
2018-05-13T04:41:17.831Z,13.90
2018-05-13T04:43:45.435Z,14.20
2018-05-13T04:46:13.766Z,14.30
2018-05-13T04:48:41.312Z,14.30
2018-05-13T04:51:08.895Z,14.40
2018-05-13T04:53:36.458Z,14.50
2018-05-13T04:56:04.035Z,14.50
2018-05-13T04:58:31.594Z,14.50
2018-05-13T05:00:59.272Z,14.50
2018-05-13T05:03:27.081Z,14.70
2018-05-13T05:05:54.638Z,14.90
2018-05-13T05:08:22.211Z,15.00
2018-05-13T05:10:50.055Z,14.90
2018-05-13T05:13:17.627Z,15.00
2018-05-13T05:15:45.175Z,15.10
2018-05-13T05:18:12.932Z,15.20
2018-05-13T05:20:40.492Z,15.40
2018-05-13T05:23:08.059Z,15.40
2018-05-13T05:25:35.794Z,15.70
2018-05-13T05:28:03.489Z,15.80
2018-05-13T05:30:31.064Z,16.00
2018-05-13T05:32:58.666Z,16.20
2018-05-13T05:35:26.462Z,16.30
2018-05-13T05:37:54.085Z,16.50
2018-05-13T05:40:21.687Z,16.60
2018-05-13T05:42:49.239Z,16.60
2018-05-13T05:45:16.870Z,16.60
2018-05-13T05:47:44.462Z,16.80
2018-05-13T05:50:12.076Z,16.90
2018-05-13T05:52:39.735Z,17.00
2018-05-13T05:55:07.294Z,17.10
2018-05-13T05:57:36.316Z,17.30
2018-05-13T06:00:04.821Z,17.50
2018-05-13T06:02:32.376Z,17.50
2018-05-13T06:05:00.155Z,17.50
2018-05-13T06:07:28.613Z,17.70
2018-05-13T06:09:56.175Z,17.70
2018-05-13T06:12:23.769Z,17.70
2018-05-13T06:14:51.396Z,17.90
2018-05-13T06:17:19.237Z,18.10
2018-05-13T06:19:47.604Z,18.30
2018-05-13T06:22:15.177Z,18.30
2018-05-13T06:24:43.506Z,18.60
2018-05-13T06:27:11.050Z,18.60
2018-05-13T06:29:38.622Z,18.70
2018-05-13T06:32:06.180Z,18.70
2018-05-13T06:34:33.781Z,18.80
2018-05-13T06:37:01.361Z,18.80
2018-05-13T06:39:29.720Z,19.10
2018-05-13T06:41:57.292Z,19.10
2018-05-13T06:44:25.695Z,19.50
2018-05-13T06:46:53.260Z,19.50
2018-05-13T06:49:20.831Z,19.70
2018-05-13T06:51:48.603Z,19.80
2018-05-13T06:54:16.188Z,20.00
2018-05-13T06:56:43.756Z,20.10
2018-05-13T06:59:11.497Z,20.20
2018-05-13T07:01:39.196Z,20.20
2018-05-13T07:04:07.541Z,20.50
2018-05-13T07:06:35.093Z,20.50
2018-05-13T07:09:02.701Z,20.60
2018-05-13T07:11:30.282Z,20.60
2018-05-13T07:13:57.865Z,20.70
2018-05-13T07:16:25.471Z,20.80
2018-05-13T07:18:53.031Z,20.80
2018-05-13T07:21:21.360Z,21.20
2018-05-13T07:23:48.931Z,21.20
2018-05-13T07:26:16.544Z,21.30
2018-05-13T07:28:44.880Z,21.70
2018-05-13T07:31:12.592Z,21.70
2018-05-13T07:33:40.288Z,21.90
2018-05-13T07:36:07.848Z,21.80
2018-05-13T07:38:35.441Z,21.90
2018-05-13T07:41:03.019Z,21.80
2018-05-13T07:43:30.580Z,21.90
2018-05-13T07:45:58.131Z,21.90
2018-05-13T07:48:26.495Z,21.80
2018-05-13T07:50:54.135Z,21.70
2018-05-13T07:53:21.648Z,21.80
2018-05-13T07:55:49.251Z,21.70
2018-05-13T07:58:16.911Z,21.40
2018-05-13T08:00:44.486Z,21.30
2018-05-13T08:03:12.389Z,21.20
2018-05-13T08:05:39.999Z,21.20
2018-05-13T08:08:07.772Z,21.20
2018-05-13T08:10:35.344Z,21.40
2018-05-13T08:13:02.930Z,21.50
2018-05-13T08:15:30.530Z,21.60
2018-05-13T08:17:59.085Z,22.00
2018-05-13T08:20:27.107Z,22.00
2018-05-13T08:22:54.598Z,22.10
2018-05-13T08:25:22.224Z,22.30
2018-05-13T08:27:49.879Z,22.40
2018-05-13T08:30:17.496Z,22.80
2018-05-13T08:32:45.084Z,23.10
2018-05-13T08:35:12.707Z,23.40
2018-05-13T08:37:40.333Z,23.50
2018-05-13T08:40:08.141Z,23.50
2018-05-13T08:42:35.723Z,23.60
2018-05-13T08:45:03.356Z,23.90
2018-05-13T08:47:30.948Z,24.00
2018-05-13T08:49:58.555Z,24.00
2018-05-13T08:52:26.157Z,23.80
2018-05-13T08:54:53.794Z,23.80
2018-05-13T08:57:21.467Z,23.60
2018-05-13T08:59:49.083Z,23.60
2018-05-13T09:02:16.679Z,23.90
2018-05-13T09:04:44.314Z,24.00
2018-05-13T09:07:11.939Z,23.80
2018-05-13T09:09:39.565Z,23.80
2018-05-13T09:12:07.172Z,24.10
2018-05-13T09:14:34.812Z,24.20
2018-05-13T09:17:02.426Z,24.10
2018-05-13T09:19:30.053Z,24.20
2018-05-13T09:21:57.677Z,24.20
2018-05-13T09:24:25.330Z,24.00
2018-05-13T09:26:52.994Z,24.00
2018-05-13T09:29:21.309Z,23.40
2018-05-13T09:31:48.950Z,23.40
2018-05-13T09:34:16.576Z,23.20
2018-05-13T09:36:44.225Z,23.10
2018-05-13T09:39:11.835Z,22.90
2018-05-13T09:41:39.444Z,23.10
2018-05-13T09:44:07.982Z,23.30
2018-05-13T09:46:35.524Z,23.30
2018-05-13T09:49:03.176Z,23.60
2018-05-13T09:51:30.907Z,23.60
2018-05-13T09:53:58.813Z,23.60
2018-05-13T09:56:26.468Z,23.50
2018-05-13T09:58:54.066Z,24.20
2018-05-13T10:01:21.949Z,24.60
2018-05-13T10:03:49.557Z,25.30
2018-05-13T10:06:17.336Z,25.90
2018-05-13T10:08:44.983Z,25.70
2018-05-13T10:11:12.590Z,25.80
2018-05-13T10:13:41.004Z,25.20
2018-05-13T10:16:08.639Z,25.20
2018-05-13T10:18:36.550Z,25.70
2018-05-13T10:21:04.341Z,25.60
2018-05-13T10:23:32.084Z,25.60
2018-05-13T10:25:59.684Z,25.30
2018-05-13T10:28:27.339Z,25.60
2018-05-13T10:30:55.724Z,25.30
2018-05-13T10:33:24.102Z,25.00
2018-05-13T10:35:51.866Z,25.00
2018-05-13T10:38:20.262Z,25.30
2018-05-13T10:40:47.920Z,25.30
2018-05-13T10:43:15.568Z,25.80
2018-05-13T10:45:43.309Z,26.40
2018-05-13T10:48:10.956Z,27.60
2018-05-13T10:50:38.691Z,28.30
2018-05-13T10:53:07.473Z,27.60
2018-05-13T10:55:35.164Z,26.70
2018-05-13T10:58:02.806Z,25.80
2018-05-13T11:00:30.433Z,25.70
2018-05-13T11:02:58.089Z,25.60
2018-05-13T11:05:25.716Z,25.40
2018-05-13T11:07:54.124Z,25.20
2018-05-13T11:10:22.637Z,24.70
2018-05-13T11:12:50.221Z,24.70
2018-05-13T11:15:17.866Z,24.90
2018-05-13T11:17:45.524Z,25.10
2018-05-13T11:20:13.276Z,24.90
2018-05-13T11:22:40.872Z,24.40
2018-05-13T11:25:08.562Z,23.90
2018-05-13T11:27:36.165Z,23.30
2018-05-13T11:30:03.911Z,23.00
2018-05-13T11:32:31.512Z,22.70
2018-05-13T11:34:59.154Z,22.10
2018-05-13T11:37:26.794Z,22.50
2018-05-13T11:39:54.575Z,22.70
2018-05-13T11:42:22.116Z,22.90
2018-05-13T11:44:49.762Z,23.00
2018-05-13T11:47:17.415Z,23.20
2018-05-13T11:49:44.988Z,23.20
2018-05-13T11:52:12.811Z,23.10
2018-05-13T11:54:40.449Z,22.70
2018-05-13T11:57:08.054Z,22.80
2018-05-13T11:59:35.692Z,22.80
2018-05-13T12:02:03.355Z,22.60
2018-05-13T12:04:30.975Z,22.40
2018-05-13T12:06:58.626Z,22.30
2018-05-13T12:09:26.218Z,21.90
2018-05-13T12:11:53.950Z,21.60
2018-05-13T12:14:22.614Z,20.90
2018-05-13T12:16:50.320Z,20.90
2018-05-13T12:19:18.935Z,19.70
2018-05-13T12:21:46.911Z,19.60
2018-05-13T12:24:14.612Z,19.20
2018-05-13T12:26:42.407Z,18.40
2018-05-13T12:29:10.028Z,17.90
2018-05-13T12:31:37.920Z,17.60
2018-05-13T12:34:06.550Z,16.80
2018-05-13T12:36:34.220Z,16.80
2018-05-13T12:39:02.243Z,16.60
2018-05-13T12:41:30.106Z,16.40
2018-05-13T12:43:57.776Z,16.00
2018-05-13T12:46:25.454Z,15.60
2018-05-13T12:48:53.277Z,15.40
2018-05-13T12:51:20.885Z,15.20
2018-05-13T12:53:48.534Z,15.00
2018-05-13T12:56:16.576Z,14.80
2018-05-13T12:58:44.321Z,14.80
2018-05-13T13:01:11.991Z,14.80
2018-05-13T13:03:39.665Z,14.70
2018-05-13T13:06:07.330Z,14.50
2018-05-13T13:08:34.992Z,14.40
2018-05-13T13:11:02.649Z,14.40
2018-05-13T13:13:30.290Z,14.40
2018-05-13T13:15:57.998Z,14.40
2018-05-13T13:18:25.577Z,14.50
2018-05-13T13:20:53.212Z,14.40
2018-05-13T13:23:20.838Z,14.40
2018-05-13T13:25:48.573Z,14.50
2018-05-13T13:28:16.265Z,14.50
2018-05-13T13:30:44.262Z,14.50
2018-05-13T13:33:11.875Z,14.60
2018-05-13T13:35:39.519Z,14.60
2018-05-13T13:38:07.269Z,14.60
2018-05-13T13:40:35.030Z,14.60
2018-05-13T13:43:02.664Z,14.60
2018-05-13T13:45:30.351Z,14.50
2018-05-13T13:47:58.007Z,14.60
2018-05-13T13:50:25.658Z,14.40
2018-05-13T13:52:53.465Z,14.30
2018-05-13T13:55:21.085Z,14.20
2018-05-13T13:57:49.617Z,14.30
2018-05-13T14:00:17.232Z,14.20
2018-05-13T14:02:45.132Z,14.20
2018-05-13T14:05:12.949Z,14.20
2018-05-13T14:07:40.920Z,14.10
2018-05-13T14:10:08.588Z,14.10
2018-05-13T14:12:36.247Z,14.10
2018-05-13T14:15:03.899Z,14.10
2018-05-13T14:17:31.581Z,14.10
2018-05-13T14:19:59.270Z,14.20
2018-05-13T14:22:26.901Z,14.20
2018-05-13T14:24:54.616Z,14.20
2018-05-13T14:27:22.444Z,14.20
2018-05-13T14:29:50.107Z,14.30
2018-05-13T14:32:18.070Z,14.20
2018-05-13T14:34:45.729Z,14.30
2018-05-13T14:37:13.618Z,14.30
2018-05-13T14:39:41.294Z,14.30
2018-05-13T14:42:09.328Z,14.40
2018-05-13T14:44:37.066Z,14.40
2018-05-13T14:47:05.520Z,14.50
2018-05-13T14:49:33.168Z,14.60
2018-05-13T14:52:00.796Z,14.60
2018-05-13T14:54:28.567Z,14.70
2018-05-13T14:56:56.557Z,14.60
2018-05-13T14:59:24.224Z,14.70
2018-05-13T15:01:51.946Z,14.70
2018-05-13T15:04:19.827Z,14.80
2018-05-13T15:06:47.675Z,14.90
2018-05-13T15:09:15.315Z,15.00
2018-05-13T15:11:44.135Z,15.10
2018-05-13T15:14:11.775Z,15.10
2018-05-13T15:16:39.481Z,15.10
2018-05-13T15:19:07.155Z,15.10
2018-05-13T15:21:34.793Z,15.20
2018-05-13T15:24:02.456Z,15.20
2018-05-13T15:26:30.063Z,15.30
2018-05-13T15:28:57.924Z,15.30
2018-05-13T15:31:25.843Z,15.40
2018-05-13T15:33:53.515Z,15.40
2018-05-13T15:36:21.150Z,15.40
2018-05-13T15:38:48.789Z,15.50
2018-05-13T15:41:16.607Z,15.50
2018-05-13T15:43:44.281Z,15.40
2018-05-13T15:46:11.895Z,15.30
2018-05-13T15:48:40.310Z,15.20
2018-05-13T15:51:08.193Z,15.20
2018-05-13T15:53:35.862Z,15.20
2018-05-13T15:56:03.476Z,15.20
2018-05-13T15:58:31.196Z,15.20
2018-05-13T16:00:59.661Z,15.10
2018-05-13T16:03:27.305Z,15.10
2018-05-13T16:05:54.957Z,15.10
2018-05-13T16:08:22.593Z,15.30
2018-05-13T16:10:50.232Z,15.30
2018-05-13T16:13:18.841Z,15.30
2018-05-13T16:15:46.673Z,15.20
2018-05-13T16:18:14.303Z,15.10
2018-05-13T16:20:41.943Z,15.10
2018-05-13T16:23:09.636Z,15.00
2018-05-13T16:25:37.243Z,15.00
2018-05-13T16:28:04.914Z,14.90
2018-05-13T16:30:32.571Z,15.00
2018-05-13T16:33:00.243Z,15.00
2018-05-13T16:35:27.864Z,15.10
2018-05-13T16:37:56.429Z,15.20
2018-05-13T16:40:25.105Z,15.20
2018-05-13T16:42:52.769Z,15.20
2018-05-13T16:45:20.422Z,15.20
2018-05-13T16:47:48.074Z,15.20
2018-05-13T16:50:15.744Z,15.10
2018-05-13T16:52:43.449Z,15.00
2018-05-13T16:55:11.850Z,14.80
2018-05-13T16:57:39.698Z,14.80
2018-05-13T17:00:08.309Z,14.50
2018-05-13T17:02:35.993Z,14.50
2018-05-13T17:05:03.642Z,14.50
2018-05-13T17:07:31.312Z,14.50
2018-05-13T17:09:59.143Z,14.40
2018-05-13T17:12:26.756Z,14.40
2018-05-13T17:14:54.408Z,14.30
2018-05-13T17:17:22.455Z,14.40
2018-05-13T17:19:50.089Z,14.40
2018-05-13T17:22:18.567Z,14.40
2018-05-13T17:24:47.029Z,14.50
2018-05-13T17:27:14.702Z,14.50
2018-05-13T17:29:43.129Z,14.40
2018-05-13T17:32:10.808Z,14.40
2018-05-13T17:34:38.492Z,14.50
2018-05-13T17:37:06.169Z,14.40
2018-05-13T17:39:34.576Z,14.30
2018-05-13T17:42:02.251Z,14.30
2018-05-13T17:44:30.136Z,14.30
2018-05-13T17:46:58.758Z,14.20
2018-05-13T17:49:26.616Z,14.30
2018-05-13T17:51:55.227Z,14.20
2018-05-13T17:54:22.854Z,14.10
2018-05-13T17:56:50.683Z,14.30
2018-05-13T17:59:18.439Z,14.30
2018-05-13T18:01:46.068Z,14.30
2018-05-13T18:04:14.497Z,14.30
2018-05-13T18:06:42.150Z,14.30
2018-05-13T18:09:09.871Z,14.30
2018-05-13T18:11:37.559Z,14.20
2018-05-13T18:14:05.203Z,14.20
2018-05-13T18:16:32.949Z,14.20
2018-05-13T18:19:01.351Z,14.30
2018-05-13T18:21:29.165Z,14.20
2018-05-13T18:23:56.733Z,14.20
2018-05-13T18:26:24.412Z,14.10
2018-05-13T18:28:52.034Z,14.00
2018-05-13T18:31:19.730Z,14.00
2018-05-13T18:33:47.489Z,14.00
2018-05-13T18:36:15.100Z,14.00
2018-05-13T18:38:42.764Z,14.00
2018-05-13T18:41:10.525Z,14.20
2018-05-13T18:43:38.393Z,14.20
2018-05-13T18:46:06.151Z,14.30
2018-05-13T18:48:34.319Z,14.30
2018-05-13T18:51:02.071Z,14.30
2018-05-13T18:53:29.788Z,14.20
2018-05-13T18:55:57.507Z,14.20
2018-05-13T18:58:25.165Z,14.10
2018-05-13T19:00:53.023Z,14.00
2018-05-13T19:03:20.861Z,14.10
2018-05-13T19:05:48.533Z,14.10
2018-05-13T19:08:16.752Z,14.30
2018-05-13T19:10:44.353Z,14.10
2018-05-13T19:13:12.166Z,14.10
2018-05-13T19:15:40.086Z,14.10
2018-05-13T19:18:07.787Z,14.10
2018-05-13T19:20:35.684Z,14.00
2018-05-13T19:23:03.376Z,14.00
2018-05-13T19:25:31.211Z,14.00
2018-05-13T19:27:58.805Z,14.00
2018-05-13T19:30:26.452Z,14.00
2018-05-13T19:32:54.146Z,14.00
2018-05-13T19:35:21.837Z,14.10
2018-05-13T19:37:49.600Z,14.10
2018-05-13T19:40:17.254Z,14.10
2018-05-13T19:42:44.910Z,14.10
2018-05-13T19:45:13.443Z,14.20
2018-05-13T19:47:41.126Z,14.10
2018-05-13T19:50:09.257Z,14.30
2018-05-13T19:52:37.091Z,14.30
2018-05-13T19:55:04.946Z,14.20
2018-05-13T19:57:33.356Z,14.00
2018-05-13T20:00:01.051Z,14.00
2018-05-13T20:02:28.674Z,14.10
2018-05-13T20:04:56.513Z,14.10
2018-05-13T20:07:25.157Z,14.00
2018-05-13T20:09:52.818Z,13.90
2018-05-13T20:12:20.574Z,14.00
2018-05-13T20:14:48.219Z,14.10
2018-05-13T20:17:15.902Z,14.00
2018-05-13T20:19:43.550Z,14.00
2018-05-13T20:22:11.203Z,14.10
2018-05-13T20:24:38.976Z,14.10
2018-05-13T20:27:06.615Z,14.10
2018-05-13T20:29:34.244Z,14.10
2018-05-13T20:32:01.888Z,14.20
2018-05-13T20:34:29.494Z,14.10
2018-05-13T20:36:57.119Z,14.10
2018-05-13T20:39:24.746Z,14.10
2018-05-13T20:41:52.581Z,14.10
2018-05-13T20:44:20.696Z,14.10
2018-05-13T20:46:48.307Z,14.10
2018-05-13T20:49:15.947Z,14.10
2018-05-13T20:51:43.589Z,14.20
2018-05-13T20:54:11.545Z,14.10
2018-05-13T20:56:39.155Z,14.10
2018-05-13T20:59:06.917Z,14.10
2018-05-13T21:01:35.303Z,14.10
2018-05-13T21:04:03.091Z,14.00
2018-05-13T21:06:30.749Z,14.00
2018-05-13T21:08:58.337Z,14.00
2018-05-13T21:11:26.200Z,14.00
2018-05-13T21:13:53.773Z,14.10
2018-05-13T21:16:21.371Z,14.00
2018-05-13T21:18:49.158Z,14.00
2018-05-13T21:21:16.752Z,14.00
2018-05-13T21:23:44.428Z,14.00
2018-05-13T21:26:12.142Z,14.00
2018-05-13T21:28:39.750Z,13.90
2018-05-13T21:31:08.235Z,14.10
2018-05-13T21:33:35.847Z,14.10
2018-05-13T21:36:03.446Z,13.90
2018-05-13T21:38:31.073Z,14.00
2018-05-13T21:40:58.744Z,14.00
2018-05-13T21:43:26.449Z,14.00
2018-05-13T21:45:54.875Z,14.00
2018-05-13T21:48:22.492Z,14.00
2018-05-13T21:50:50.673Z,14.10
2018-05-13T21:53:19.126Z,14.00
2018-05-13T21:55:46.719Z,14.00
2018-05-13T21:58:14.342Z,14.00
2018-05-13T22:00:41.941Z,14.00
2018-05-13T22:03:09.545Z,14.00
2018-05-13T22:05:37.116Z,13.90
2018-05-13T22:08:05.503Z,13.90
2018-05-13T22:10:33.160Z,13.90
2018-05-13T22:13:00.783Z,13.80
2018-05-13T22:15:28.509Z,13.90
2018-05-13T22:17:56.847Z,13.90
2018-05-13T22:20:24.732Z,13.90
2018-05-13T22:22:52.301Z,13.90
2018-05-13T22:25:20.022Z,13.80
2018-05-13T22:27:47.622Z,14.00
2018-05-13T22:30:15.240Z,14.00
2018-05-13T22:32:42.873Z,14.10
2018-05-13T22:35:10.463Z,14.10
2018-05-13T22:37:38.208Z,14.00
2018-05-13T22:40:05.808Z,13.90
2018-05-13T22:42:33.442Z,13.90
2018-05-13T22:45:01.040Z,13.90
2018-05-13T22:47:28.660Z,14.00
2018-05-13T22:49:56.229Z,14.00
2018-05-13T22:52:23.820Z,14.00
2018-05-13T22:54:51.412Z,13.90
2018-05-13T22:57:18.998Z,13.90
2018-05-13T22:59:46.582Z,14.10
2018-05-13T23:02:14.177Z,14.20
2018-05-13T23:04:41.753Z,14.20
2018-05-13T23:07:09.369Z,14.20
2018-05-13T23:09:37.107Z,14.10
2018-05-13T23:12:04.716Z,14.10
2018-05-13T23:14:33.076Z,14.10
2018-05-13T23:17:00.659Z,14.10
2018-05-13T23:19:29.021Z,14.10
2018-05-13T23:21:56.647Z,14.10
2018-05-13T23:24:24.231Z,14.20
2018-05-13T23:26:51.838Z,14.10
2018-05-13T23:29:19.435Z,14.00
2018-05-13T23:31:47.008Z,14.00
2018-05-13T23:34:14.605Z,14.10
2018-05-13T23:36:42.492Z,14.20
2018-05-13T23:39:10.099Z,14.20
2018-05-13T23:41:38.439Z,14.10
2018-05-13T23:44:06.292Z,14.10
2018-05-13T23:46:33.884Z,14.20
2018-05-13T23:49:01.457Z,14.10
2018-05-13T23:51:29.119Z,14.10
2018-05-13T23:53:56.837Z,14.20
2018-05-13T23:56:24.636Z,14.30
2018-05-13T23:58:52.231Z,14.20
